createdAt,value
2022-09-21T00:01:29.278Z,2.13
2022-09-21T00:03:59.329Z,2.38
2022-09-21T00:06:30.881Z,2.22
2022-09-21T00:08:58.510Z,2.40
2022-09-21T00:11:28.397Z,2.17
2022-09-21T00:13:59.845Z,2.83
2022-09-21T00:16:27.414Z,2.40
2022-09-21T00:18:54.440Z,2.53
2022-09-21T00:21:22.002Z,2.30
2022-09-21T00:23:49.293Z,3.60
2022-09-21T00:26:18.949Z,3.20
2022-09-21T00:28:46.655Z,3.22
2022-09-21T00:31:17.692Z,2.80
2022-09-21T00:33:44.812Z,2.55
2022-09-21T00:36:19.337Z,3.05
2022-09-21T00:38:50.597Z,2.33
2022-09-21T00:41:18.176Z,2.58
2022-09-21T00:44:11.512Z,2.33
2022-09-21T00:46:40.241Z,2.20
2022-09-21T00:49:07.779Z,2.30
2022-09-21T00:51:36.187Z,2.33
2022-09-21T00:54:13.042Z,1.67
2022-09-21T00:56:40.137Z,1.83
2022-09-21T00:59:08.025Z,2.63
2022-09-21T01:01:38.364Z,2.67
2022-09-21T01:04:07.175Z,2.42
2022-09-21T01:06:36.975Z,2.45
2022-09-21T01:09:04.249Z,2.97
2022-09-21T01:11:43.057Z,3.00
2022-09-21T01:14:28.865Z,2.45
2022-09-21T01:17:07.042Z,2.55
2022-09-21T01:19:46.145Z,2.67
2022-09-21T01:22:54.915Z,2.47
2022-09-21T01:25:40.567Z,1.95
2022-09-21T01:28:12.238Z,2.65
2022-09-21T01:30:46.972Z,2.38
2022-09-21T01:33:26.297Z,2.13
2022-09-21T01:36:09.387Z,2.40
2022-09-21T01:38:45.579Z,2.20
2022-09-21T01:41:16.300Z,2.50
2022-09-21T01:43:47.730Z,2.80
2022-09-21T01:46:19.837Z,2.67
2022-09-21T01:48:52.031Z,2.38
2022-09-21T01:51:21.970Z,2.67
2022-09-21T01:53:56.801Z,2.20
2022-09-21T01:56:40.844Z,2.10
2022-09-21T01:59:27.377Z,2.13
2022-09-21T02:01:58.923Z,3.60
2022-09-21T02:04:26.251Z,2.53
2022-09-21T02:06:54.979Z,2.42
2022-09-21T02:09:23.529Z,2.00
2022-09-21T02:14:22.561Z,2.67
2022-09-21T02:16:56.310Z,2.10
2022-09-21T02:19:36.929Z,1.95
2022-09-21T02:22:17.181Z,2.35
2022-09-21T02:24:48.041Z,2.65
2022-09-21T02:27:34.541Z,2.42
2022-09-21T02:30:21.380Z,2.05
2022-09-21T02:33:27.188Z,2.28
2022-09-21T02:36:21.110Z,2.40
2022-09-21T02:38:56.894Z,2.47
2022-09-21T02:41:30.256Z,2.45
2022-09-21T02:44:06.549Z,2.30
2022-09-21T02:46:46.173Z,2.28
2022-09-21T02:49:18.847Z,2.15
2022-09-21T02:51:49.786Z,2.85
2022-09-21T02:54:25.444Z,2.13
2022-09-21T02:56:54.116Z,2.28
2022-09-21T02:59:24.585Z,2.30
2022-09-21T03:01:52.609Z,2.38
2022-09-21T03:04:20.466Z,2.20
2022-09-21T03:09:15.262Z,2.30
2022-09-21T03:11:43.405Z,2.53
2022-09-21T03:14:33.258Z,2.30
2022-09-21T03:17:20.112Z,2.38
2022-09-21T03:20:04.509Z,2.17
2022-09-21T03:22:53.317Z,2.25
2022-09-21T03:25:25.300Z,2.13
2022-09-21T03:28:05.661Z,2.05
2022-09-21T03:30:38.976Z,2.40
2022-09-21T03:33:37.049Z,2.10
2022-09-21T03:36:14.678Z,1.92
2022-09-21T03:38:46.764Z,2.13
2022-09-21T03:41:39.730Z,2.22
2022-09-21T03:44:30.812Z,2.15
2022-09-21T03:47:04.681Z,2.40
2022-09-21T03:49:32.495Z,2.55
2022-09-21T03:51:59.761Z,2.20
2022-09-21T03:54:29.704Z,1.95
2022-09-21T03:56:56.962Z,3.45
2022-09-21T03:59:30.118Z,2.92
2022-09-21T04:02:12.649Z,2.22
2022-09-21T04:04:48.312Z,3.05
2022-09-21T04:07:18.318Z,2.20
2022-09-21T04:09:45.566Z,3.15
2022-09-21T04:12:13.005Z,2.22
2022-09-21T04:14:40.618Z,3.33
2022-09-21T04:17:07.913Z,2.50
2022-09-21T04:19:35.062Z,2.75
2022-09-21T04:22:02.037Z,2.60
2022-09-21T04:24:28.959Z,2.97
2022-09-21T04:26:56.055Z,2.72
2022-09-21T04:29:28.059Z,2.50
2022-09-21T04:31:55.623Z,2.72
2022-09-21T04:34:27.662Z,2.63
2022-09-21T04:36:58.490Z,2.63
2022-09-21T04:39:26.517Z,2.65
2022-09-21T04:41:53.818Z,4.30
2022-09-21T04:44:30.754Z,2.60
2022-09-21T04:47:08.381Z,2.90
2022-09-21T04:49:39.957Z,2.85
2022-09-21T04:52:14.778Z,3.05
2022-09-21T04:54:45.652Z,2.47
2022-09-21T04:57:15.712Z,3.05
2022-09-21T04:59:43.265Z,2.70
2022-09-21T05:02:13.575Z,3.47
2022-09-21T05:04:46.422Z,2.50
2022-09-21T05:07:16.683Z,2.60
2022-09-21T05:10:05.539Z,3.03
2022-09-21T05:12:40.747Z,3.13
2022-09-21T05:15:11.522Z,3.33
2022-09-21T05:17:41.390Z,2.75
2022-09-21T05:20:12.087Z,2.22
2022-09-21T05:22:39.460Z,3.67
2022-09-21T05:25:07.870Z,3.40
2022-09-21T05:27:36.334Z,2.75
2022-09-21T05:30:19.220Z,3.35
2022-09-21T05:33:06.426Z,3.20
2022-09-21T05:35:46.074Z,3.53
2022-09-21T05:38:18.397Z,3.33
2022-09-21T05:40:53.424Z,2.72
2022-09-21T05:46:18.762Z,4.05
2022-09-21T05:49:08.099Z,3.17
2022-09-21T05:51:50.418Z,3.60
2022-09-21T05:54:29.759Z,3.28
2022-09-21T05:57:12.785Z,3.90
2022-09-21T06:00:11.029Z,3.25
2022-09-21T06:02:55.643Z,3.22
2022-09-21T06:05:23.234Z,2.85
2022-09-21T06:07:50.636Z,3.10
2022-09-21T06:10:18.156Z,3.58
2022-09-21T06:12:45.174Z,3.13
2022-09-21T06:15:14.091Z,3.40
2022-09-21T06:17:41.167Z,3.75
2022-09-21T06:20:09.066Z,3.92
2022-09-21T06:22:36.166Z,3.75
2022-09-21T06:25:03.328Z,4.00
2022-09-21T06:27:30.304Z,4.22
2022-09-21T06:29:57.309Z,3.45
2022-09-21T06:32:24.315Z,3.20
2022-09-21T06:34:51.399Z,3.63
2022-09-21T06:37:18.516Z,3.30
2022-09-21T06:39:45.424Z,3.35
2022-09-21T06:42:15.251Z,4.55
2022-09-21T06:44:42.437Z,3.70
2022-09-21T06:47:09.701Z,4.00
2022-09-21T06:49:41.740Z,4.05
2022-09-21T06:52:09.530Z,4.15
2022-09-21T06:54:37.072Z,5.00
2022-09-21T06:57:04.166Z,4.47
2022-09-21T06:59:31.157Z,4.70
2022-09-21T07:01:58.553Z,4.60
2022-09-21T07:04:25.743Z,5.63
2022-09-21T07:06:52.858Z,4.43
2022-09-21T07:12:08.030Z,4.55
2022-09-21T07:14:35.013Z,4.78
2022-09-21T07:17:02.460Z,4.40
2022-09-21T07:19:29.392Z,4.95
2022-09-21T07:21:56.374Z,4.68
2022-09-21T07:24:23.359Z,4.75
2022-09-21T07:26:50.602Z,4.88
2022-09-21T07:29:17.469Z,5.10
2022-09-21T07:31:45.172Z,4.80
2022-09-21T07:34:12.360Z,5.60
2022-09-21T07:36:39.299Z,6.45
2022-09-21T07:39:09.416Z,6.32
2022-09-21T07:41:36.710Z,7.55
2022-09-21T07:44:08.092Z,7.80
2022-09-21T07:46:37.022Z,6.90
2022-09-21T07:49:05.904Z,6.03
2022-09-21T07:51:32.883Z,6.70
2022-09-21T07:54:37.441Z,7.55
2022-09-21T07:57:23.007Z,5.30
2022-09-21T07:59:50.306Z,5.18
2022-09-21T08:02:17.300Z,5.18
2022-09-21T08:04:44.386Z,4.45
2022-09-21T08:07:11.319Z,4.40
2022-09-21T08:09:38.691Z,4.65
2022-09-21T08:12:05.645Z,3.53
2022-09-21T08:14:32.770Z,4.10
2022-09-21T08:16:59.621Z,3.45
2022-09-21T08:19:26.670Z,5.75
2022-09-21T08:21:57.463Z,4.80
2022-09-21T08:24:28.523Z,6.18
2022-09-21T08:26:56.129Z,5.82
2022-09-21T08:29:24.741Z,6.20
2022-09-21T08:34:21.133Z,4.68
2022-09-21T08:36:51.764Z,5.13
2022-09-21T08:39:21.837Z,5.25
2022-09-21T08:41:59.164Z,3.92
2022-09-21T08:44:48.679Z,3.70
2022-09-21T08:47:57.323Z,5.63
2022-09-21T08:50:33.907Z,4.20
2022-09-21T08:53:21.852Z,4.22
2022-09-21T08:55:48.892Z,5.10
2022-09-21T09:01:19.892Z,3.78
2022-09-21T09:04:14.455Z,3.10
2022-09-21T09:06:56.297Z,3.28
2022-09-21T09:09:41.712Z,3.70
2022-09-21T09:12:11.503Z,4.70
2022-09-21T09:14:44.698Z,3.85
2022-09-21T09:17:25.606Z,3.78
2022-09-21T09:19:58.719Z,4.03
2022-09-21T09:22:31.822Z,3.83
2022-09-21T09:25:06.209Z,4.05
2022-09-21T09:27:41.440Z,3.90
2022-09-21T09:30:17.256Z,3.25
2022-09-21T09:32:53.905Z,3.10
2022-09-21T09:35:47.021Z,2.70
2022-09-21T09:38:19.928Z,5.22
2022-09-21T09:41:05.643Z,2.50
2022-09-21T09:44:14.471Z,4.30
2022-09-21T09:46:52.030Z,2.38
2022-09-21T09:49:30.780Z,3.80
2022-09-21T09:51:58.147Z,2.33
2022-09-21T09:54:27.931Z,2.75
2022-09-21T09:56:55.253Z,2.50
2022-09-21T09:59:22.349Z,2.60
2022-09-21T10:02:00.932Z,2.15
2022-09-21T10:04:28.209Z,2.75
2022-09-21T10:06:55.109Z,3.00
2022-09-21T10:09:25.209Z,2.10
2022-09-21T10:11:55.278Z,2.47
2022-09-21T10:14:25.225Z,3.33
2022-09-21T10:16:53.513Z,2.38
2022-09-21T10:19:26.341Z,2.67
2022-09-21T10:21:59.315Z,2.25
2022-09-21T10:24:39.155Z,2.80
2022-09-21T10:27:12.003Z,2.60
2022-09-21T10:29:46.547Z,2.10
2022-09-21T10:32:14.712Z,2.42
2022-09-21T10:35:00.853Z,4.72
2022-09-21T10:37:29.047Z,1.90
2022-09-21T10:39:57.199Z,2.03
2022-09-21T10:44:53.518Z,2.58
2022-09-21T10:47:35.932Z,2.85
2022-09-21T10:50:07.800Z,1.80
2022-09-21T10:52:40.805Z,2.88
2022-09-21T10:55:19.787Z,1.65
2022-09-21T10:57:47.950Z,2.55
2022-09-21T11:02:51.082Z,1.60
2022-09-21T11:05:42.305Z,1.55
2022-09-21T11:08:18.312Z,1.50
2022-09-21T11:11:03.434Z,2.88
2022-09-21T11:13:39.670Z,1.52
2022-09-21T11:16:15.625Z,0.77
2022-09-21T11:19:14.703Z,0.98
2022-09-21T11:21:51.954Z,1.40
2022-09-21T11:24:46.713Z,0.90
2022-09-21T11:27:27.452Z,2.25
2022-09-21T11:30:11.639Z,1.92
2022-09-21T11:33:16.914Z,1.33
2022-09-21T11:36:34.528Z,1.77
2022-09-21T11:41:50.108Z,0.95
2022-09-21T11:44:55.883Z,0.80
2022-09-21T11:47:50.755Z,1.27
2022-09-21T11:50:48.268Z,0.93
2022-09-21T11:53:20.470Z,1.15
2022-09-21T11:55:52.586Z,1.50
2022-09-21T11:58:41.596Z,0.73
2022-09-21T12:01:36.640Z,1.40
2022-09-21T12:04:15.834Z,0.80
2022-09-21T12:07:03.880Z,1.70
2022-09-21T12:12:19.376Z,0.93
2022-09-21T12:14:54.170Z,0.73
2022-09-21T12:17:37.144Z,0.75
2022-09-21T12:20:14.166Z,1.35
2022-09-21T12:22:45.780Z,0.95
2022-09-21T12:25:17.513Z,0.75
2022-09-21T12:27:51.645Z,1.27
2022-09-21T12:30:23.428Z,0.70
2022-09-21T12:32:54.028Z,0.75
2022-09-21T12:35:27.537Z,0.82
2022-09-21T12:37:59.812Z,0.80
2022-09-21T12:40:55.985Z,0.85
2022-09-21T12:43:44.458Z,1.15
2022-09-21T12:46:33.106Z,0.75
2022-09-21T12:49:14.351Z,0.70
2022-09-21T12:51:45.577Z,0.80
2022-09-21T12:54:19.641Z,1.00
2022-09-21T12:57:38.296Z,0.90
2022-09-21T13:00:18.494Z,1.00
2022-09-21T13:02:57.209Z,1.40
2022-09-21T13:06:00.979Z,1.90
2022-09-21T13:08:36.852Z,1.08
2022-09-21T13:11:08.063Z,1.67
2022-09-21T13:13:45.827Z,0.98
2022-09-21T13:16:33.889Z,1.33
2022-09-21T13:22:13.888Z,1.30
2022-09-21T13:24:44.866Z,1.25
2022-09-21T13:27:13.912Z,1.80
2022-09-21T13:29:42.950Z,1.55
2022-09-21T13:32:16.089Z,1.20
2022-09-21T13:34:45.447Z,1.00
2022-09-21T13:37:14.995Z,0.85
2022-09-21T13:39:50.280Z,1.20
2022-09-21T13:42:35.470Z,1.40
2022-09-21T13:45:24.861Z,1.38
2022-09-21T13:48:00.241Z,2.53
2022-09-21T13:50:42.636Z,1.25
2022-09-21T13:53:23.519Z,1.13
2022-09-21T13:55:54.008Z,0.77
2022-09-21T13:58:34.095Z,1.35
2022-09-21T14:01:42.477Z,1.50
2022-09-21T14:04:17.989Z,1.20
2022-09-21T14:06:49.320Z,1.30
2022-09-21T14:09:34.095Z,1.70
2022-09-21T14:12:08.997Z,1.20
2022-09-21T14:14:38.332Z,1.13
2022-09-21T14:17:26.056Z,1.35
2022-09-21T14:19:53.004Z,2.67
2022-09-21T14:22:20.464Z,1.10
2022-09-21T14:24:51.259Z,0.70
2022-09-21T14:27:30.084Z,1.45
2022-09-21T14:30:07.965Z,1.52
2022-09-21T14:35:14.442Z,1.05
2022-09-21T14:37:47.018Z,1.00
2022-09-21T14:40:25.017Z,0.80
2022-09-21T14:42:55.538Z,0.80
2022-09-21T14:45:45.358Z,1.20
2022-09-21T14:48:35.150Z,0.88
2022-09-21T14:51:21.026Z,1.08
2022-09-21T14:53:57.072Z,0.88
2022-09-21T14:57:05.302Z,0.90
2022-09-21T14:59:59.049Z,0.80
2022-09-21T15:02:29.495Z,1.70
2022-09-21T15:05:04.436Z,1.00
2022-09-21T15:07:59.897Z,1.10
2022-09-21T15:10:55.586Z,0.93
2022-09-21T15:13:41.706Z,1.00
2022-09-21T15:16:17.885Z,0.95
2022-09-21T15:18:51.388Z,0.82
2022-09-21T15:21:29.952Z,1.00
2022-09-21T15:23:59.259Z,1.67
2022-09-21T15:26:33.421Z,1.00
2022-09-21T15:29:10.957Z,1.17
2022-09-21T15:31:40.421Z,1.58
2022-09-21T15:34:09.526Z,1.20
2022-09-21T15:36:39.809Z,1.73
2022-09-21T15:39:18.483Z,1.23
2022-09-21T15:41:49.446Z,1.20
2022-09-21T15:44:23.045Z,1.15
2022-09-21T15:46:53.395Z,1.35
2022-09-21T15:49:24.953Z,1.80
2022-09-21T15:52:24.539Z,0.98
2022-09-21T15:55:09.302Z,0.90
2022-09-21T15:57:40.666Z,1.20
2022-09-21T16:00:22.582Z,1.10
2022-09-21T16:03:21.046Z,1.33
2022-09-21T16:05:50.733Z,1.30
2022-09-21T16:08:28.866Z,1.73
2022-09-21T16:11:19.055Z,1.13
2022-09-21T16:14:06.215Z,1.92
2022-09-21T16:16:33.451Z,1.55
2022-09-21T16:19:00.441Z,1.95
2022-09-21T16:21:32.916Z,1.17
2022-09-21T16:24:27.163Z,1.50
2022-09-21T16:27:02.685Z,1.83
2022-09-21T16:29:45.592Z,1.50
2022-09-21T16:32:18.677Z,1.58
2022-09-21T16:34:54.240Z,1.48
2022-09-21T16:37:28.714Z,1.10
2022-09-21T16:39:59.634Z,1.50
2022-09-21T16:42:32.976Z,1.30
2022-09-21T16:45:01.002Z,1.63
2022-09-21T16:47:28.948Z,1.20
2022-09-21T16:50:00.398Z,1.40
2022-09-21T16:52:29.045Z,2.33
2022-09-21T16:54:56.781Z,2.08
2022-09-21T16:57:26.191Z,1.50
2022-09-21T16:59:53.492Z,1.52
2022-09-21T17:02:21.198Z,1.55
2022-09-21T17:04:48.313Z,1.45
2022-09-21T17:07:17.091Z,1.73
2022-09-21T17:09:46.410Z,1.13
2022-09-21T17:12:18.220Z,1.20
2022-09-21T17:14:47.319Z,1.20
2022-09-21T17:17:22.501Z,1.67
2022-09-21T17:19:51.025Z,3.08
2022-09-21T17:24:52.553Z,1.07
2022-09-21T17:27:25.340Z,1.33
2022-09-21T17:29:54.117Z,2.75
2022-09-21T17:32:23.208Z,1.33
2022-09-21T17:35:29.177Z,1.40
2022-09-21T17:37:56.621Z,1.30
2022-09-21T17:40:24.885Z,1.15
2022-09-21T17:42:54.570Z,1.55
2022-09-21T17:45:38.759Z,2.03
2022-09-21T17:48:12.617Z,1.20
2022-09-21T17:50:40.059Z,1.20
2022-09-21T17:53:28.265Z,2.00
2022-09-21T17:55:58.598Z,1.30
2022-09-21T17:58:31.395Z,1.50
2022-09-21T18:01:07.444Z,1.20
2022-09-21T18:03:41.055Z,2.55
2022-09-21T18:06:09.896Z,1.38
2022-09-21T18:08:38.608Z,2.53
2022-09-21T18:11:38.769Z,1.50
2022-09-21T18:14:11.719Z,1.33
2022-09-21T18:16:47.594Z,1.05
2022-09-21T18:19:32.697Z,1.20
2022-09-21T18:22:22.939Z,1.52
2022-09-21T18:24:52.093Z,1.65
2022-09-21T18:27:20.112Z,1.50
2022-09-21T18:29:47.369Z,1.25
2022-09-21T18:32:43.416Z,2.03
2022-09-21T18:35:28.986Z,2.00
2022-09-21T18:38:23.972Z,2.17
2022-09-21T18:41:29.921Z,1.73
2022-09-21T18:44:23.977Z,2.25
2022-09-21T18:46:53.713Z,1.90
2022-09-21T18:49:39.254Z,2.95
2022-09-21T18:52:09.337Z,2.15
2022-09-21T18:54:36.430Z,1.63
2022-09-21T18:57:13.253Z,1.58
2022-09-21T18:59:41.110Z,1.70
2022-09-21T19:02:14.911Z,2.40
2022-09-21T19:04:46.354Z,2.30
2022-09-21T19:07:25.239Z,2.65
2022-09-21T19:10:25.429Z,2.05
2022-09-21T19:13:00.281Z,2.08
2022-09-21T19:16:00.506Z,2.22
2022-09-21T19:18:46.545Z,2.30
2022-09-21T19:21:19.680Z,1.80
2022-09-21T19:23:53.442Z,1.90
2022-09-21T19:26:46.716Z,2.40
2022-09-21T19:29:52.898Z,1.92
2022-09-21T19:32:33.316Z,2.28
2022-09-21T19:35:13.863Z,1.92
2022-09-21T19:37:41.090Z,1.73
2022-09-21T19:40:08.780Z,3.40
2022-09-21T19:43:08.043Z,1.85
2022-09-21T19:45:54.897Z,2.25
2022-09-21T19:48:27.212Z,3.28
2022-09-21T19:50:57.309Z,3.20
2022-09-21T19:53:43.797Z,2.20
2022-09-21T19:56:34.810Z,2.20
2022-09-21T19:59:20.777Z,2.45
2022-09-21T20:02:01.567Z,2.85
2022-09-21T20:04:42.586Z,4.15
2022-09-21T20:07:50.308Z,3.67
2022-09-21T20:10:24.757Z,3.10
2022-09-21T20:12:54.712Z,3.10
2022-09-21T20:15:29.455Z,4.47
2022-09-21T20:18:08.009Z,3.00
2022-09-21T20:20:35.377Z,3.92
2022-09-21T20:23:02.947Z,4.00
2022-09-21T20:25:37.648Z,3.07
2022-09-21T20:28:05.215Z,4.80
2022-09-21T20:30:34.955Z,3.10
2022-09-21T20:33:17.160Z,3.47
2022-09-21T20:35:44.274Z,4.05
2022-09-21T20:38:11.661Z,2.83
2022-09-21T20:40:40.563Z,3.10
2022-09-21T20:43:09.824Z,3.40
2022-09-21T20:45:36.969Z,2.63
2022-09-21T20:48:15.990Z,2.00
2022-09-21T20:50:51.374Z,3.08
2022-09-21T20:53:19.320Z,4.32
2022-09-21T20:55:56.469Z,2.40
2022-09-21T20:58:24.700Z,1.70
2022-09-21T21:00:56.469Z,3.20
2022-09-21T21:03:25.754Z,2.15
2022-09-21T21:05:52.749Z,2.92
2022-09-21T21:08:19.770Z,4.30
2022-09-21T21:10:47.048Z,3.25
2022-09-21T21:13:14.020Z,3.05
2022-09-21T21:15:43.263Z,2.70
2022-09-21T21:18:12.455Z,2.30
2022-09-21T21:20:41.044Z,2.28
2022-09-21T21:25:35.958Z,1.92
2022-09-21T21:28:03.582Z,2.10
2022-09-21T21:30:31.473Z,2.57
2022-09-21T21:32:58.723Z,3.40
2022-09-21T21:35:25.955Z,2.50
2022-09-21T21:37:52.982Z,3.33
2022-09-21T21:40:20.760Z,2.53
2022-09-21T21:42:47.932Z,4.97
2022-09-21T21:45:14.863Z,3.88
2022-09-21T21:47:41.951Z,2.95
2022-09-21T21:50:10.786Z,2.65
2022-09-21T21:52:38.083Z,2.60
2022-09-21T21:55:06.104Z,2.58
2022-09-21T21:57:33.439Z,2.70
2022-09-21T22:00:00.372Z,2.45
2022-09-21T22:02:29.262Z,2.22
2022-09-21T22:04:56.314Z,2.47
2022-09-21T22:07:23.419Z,3.88
2022-09-21T22:09:50.347Z,3.53
2022-09-21T22:12:17.648Z,2.75
2022-09-21T22:14:46.426Z,4.13
2022-09-21T22:17:13.620Z,3.53
2022-09-21T22:19:40.509Z,3.47
2022-09-21T22:22:07.506Z,4.40
2022-09-21T22:24:34.951Z,2.90
2022-09-21T22:27:01.980Z,2.90
2022-09-21T22:29:28.864Z,2.70
2022-09-21T22:31:55.979Z,2.88
2022-09-21T22:34:23.074Z,2.78
2022-09-21T22:36:50.681Z,3.75
2022-09-21T22:39:17.594Z,3.10
2022-09-21T22:41:44.553Z,3.67
2022-09-21T22:44:11.713Z,2.85
2022-09-21T22:46:39.358Z,3.92
2022-09-21T22:49:06.814Z,2.60
2022-09-21T22:51:34.563Z,2.83
2022-09-21T22:54:01.784Z,2.80
2022-09-21T22:56:30.831Z,2.50
2022-09-21T22:59:02.603Z,3.05
2022-09-21T23:01:38.729Z,3.08
2022-09-21T23:04:11.196Z,2.63
2022-09-21T23:06:42.865Z,3.47
2022-09-21T23:09:15.380Z,2.63
2022-09-21T23:11:47.485Z,4.43
2022-09-21T23:14:16.556Z,2.80
2022-09-21T23:16:43.765Z,3.38
2022-09-21T23:19:15.705Z,2.65
2022-09-21T23:21:49.714Z,3.15
2022-09-21T23:24:17.404Z,2.60
2022-09-21T23:26:44.778Z,2.92
2022-09-21T23:29:16.351Z,2.80
2022-09-21T23:31:45.877Z,4.82
2022-09-21T23:34:14.044Z,2.88
2022-09-21T23:36:41.945Z,3.03
2022-09-21T23:39:11.914Z,2.47
2022-09-21T23:41:39.381Z,2.67
2022-09-21T23:44:06.442Z,3.03
2022-09-21T23:46:37.269Z,2.92
2022-09-21T23:49:04.831Z,4.00
2022-09-21T23:51:32.098Z,2.50
2022-09-21T23:53:59.906Z,3.22
2022-09-21T23:56:28.572Z,3.37
